Powers, OR (97466)

5:13 AM PDT on August 27, 2014 (GMT -0700)
Pelennor Fields | Change Station
CLOSE
Current Station
Personal Weather Station
Location: Powers, OR
Elevation: 243 ft
Nearby Weather Stations

Elev 243 ft 42.89 °N, 124.07 °W | Updated 6 minutes ago

Partly Cloudy
Partly Cloudy
53.8 °F
Feels Like 53.8 °F
N
0.0
Wind Variable Wind from ESE

Today
High -- | Low -- °F
--% Chance of Precip.
Yesterday
High -- | Low -- °F
Precip. -- in
6:35 AM 7:59 PM
Waxing Crescent, 3% visible
Pressure 30.07 in
Visibility 8.0 miles
Clouds Overcast 400 ft
Dew Point 53 °F
Humidity 98%
Rainfall 0.00 in
Snow Depth Not available.
UV 0 out of 12
Pollen 6.30 out of 12
Air Quality Not available.
Flu Activity Not available.
METAR KOTH 271155Z 01008KT 8SM OVC004 13/13 A3007 RMK AO1 10140 20130 52003

More Conditions Fewer Conditions

Pressure 30.07 in
Visibility 8.0 miles
Clouds Overcast 400 ft
Dew Point 53 °F
Humidity 98%
Rainfall 0.00 in
Snow Depth Not available.
UV 0 out of 12
Pollen 6.30 out of 12
Air Quality Not available.
Flu Activity Not available.
METAR KOTH 271155Z 01008KT 8SM OVC004 13/13 A3007 RMK AO1 10140 20130 52003

More Conditions Fewer Conditions

10-Day Weather Forecast

Almanac

Astronomy

Aug. 27, 2014 Rise Set
Actual Time 6:35 AM PDT 7:59 PM PDT
Civil Twilight 6:06 AM PDT 8:28 PM PDT
Nautical Twilight 5:30 AM PDT 9:03 PM PDT
Astronomical Twilight 4:52 AM PDT 9:41 PM PDT
Moon 8:41 AM PDT 8:49 PM PDT
Length of Visible Light 14h 22m
Length of Day
13h 23m
Tomorrow will be 2m 45s shorter.
Waxing Crescent, 3% of the Moon is Illuminated
Today
Waxing Crescent
Sep 2
First Quarter
Sep 8
Full
Sep 15
Last Quarter
Sep 24
New

Today's Extremes

State Highs State Lows

Community

WunderPhotos

Upload Photos

1,747,674 photos uploaded!

Nearby

Snow Depth

Station Depth Elevation
Bigelow Camp 1 in 5120 ft
Fish Lake 0 in 4665 ft
Billie Creek Divide 0 in 5300 ft
Cold Springs Camp 0 in 6100 ft
Sevenmile Marsh 0 in 6200 ft

Earthquake Activity

City Distance Mag. Time & Date
Waldport, Oregon 135 miles 2.5 10:59 PM PDT
2014-08-25
Minimum magnitude displayed is 2.5.

Coastal Water Temperatures

Place Temperature
Port Orford, OR 53.1 °F
Charleston, OR 51.1 °F
South Beach, OR 50.0 °F

Nearby Weather Stations